Time;durP1;ratioP1;P1;durP2;ratioP2;P2;SDS_P1;SDS_P2;PMS_P1;PMS_P2;Temp;Humidity;BMP_temperature;BMP_pressure;BME280_temperature;BME280_humidity;BME280_pressure;Samples;Min_cycle;Max_cycle;Signal;HPM_P1;HPM_P2
2023/03/31 00:02:06;;;;;;;;;;;4.40;99.90;;;;;;5022964;28;19913;-86
2023/03/31 00:04:32;;;;;;;;;;;4.40;99.90;;;;;;5039875;28;19920;-86
2023/03/31 00:06:57;;;;;;;;;;;4.40;99.90;;;;;;5039146;28;19913;-86
2023/03/31 00:09:23;;;;;;;;;;;4.40;99.90;;;;;;5039118;28;20399;-86
2023/03/31 00:11:49;;;;;;;;;;;4.50;99.90;;;;;;5039101;28;20288;-86
2023/03/31 00:14:16;;;;;;;;;;;4.50;99.90;;;;;;5022714;28;19968;-86
2023/03/31 00:16:42;;;;;;;;;;;4.50;99.90;;;;;;5022772;28;19917;-86
2023/03/31 00:19:11;;;;;;;;;;;4.60;99.90;;;;;;5022665;28;19913;-86
2023/03/31 00:21:37;;;;;;;;;;;4.60;99.90;;;;;;5039112;28;20404;-86
2023/03/31 00:24:04;;;;;;;;;;;4.60;99.90;;;;;;5038963;28;19913;-87
2023/03/31 00:26:30;;;;;;;;;;;4.50;99.90;;;;;;5040251;28;19991;-86
2023/03/31 00:28:56;;;;;;;;;;;4.50;99.90;;;;;;5040353;28;20357;-86
2023/03/31 00:31:22;;;;;;;;;;;4.50;99.90;;;;;;5039367;28;19919;-87
2023/03/31 00:33:48;;;;;;;;;;;4.50;99.90;;;;;;5056635;28;20007;-87
2023/03/31 00:36:19;;;;;;;;;;;4.50;99.90;;;;;;5056593;28;19917;-86
2023/03/31 00:38:48;;;;;;;;;;;4.50;99.90;;;;;;5039640;28;19913;-86
2023/03/31 00:41:14;;;;;;;;;;;4.50;99.90;;;;;;5056465;28;19927;-86
2023/03/31 00:43:41;;;;;;;;;;;4.60;99.90;;;;;;5038665;28;20281;-86
2023/03/31 00:46:16;;;;;;;;;;;4.60;99.90;;;;;;5038556;28;20021;-86
2023/03/31 00:48:50;;;;;;;;;;;4.60;99.90;;;;;;5038581;28;19913;-86
2023/03/31 00:51:16;;;;;;;;;;;4.60;99.90;;;;;;5056670;28;19915;-86
2023/03/31 00:53:42;;;;;;;;;;;4.60;99.90;;;;;;5055833;28;20297;-86
2023/03/31 00:56:11;;;;;;;;;;;4.50;99.90;;;;;;5038554;28;19978;-86
2023/03/31 00:58:42;;;;;;;;;;;4.50;99.90;;;;;;5038446;28;20293;-86
2023/03/31 01:01:09;;;;;;;;;;;4.40;99.90;;;;;;5056522;28;20250;-86
2023/03/31 01:03:37;;;;;;;;;;;4.40;99.90;;;;;;5056219;28;19923;-86
2023/03/31 01:06:04;;;;;;;;;;;4.40;99.90;;;;;;5038364;28;19920;-85
2023/03/31 01:08:30;;;;;;;;;;;4.40;99.90;;;;;;5038417;28;19909;-86
2023/03/31 01:10:58;;;;;;;;;;;4.40;99.90;;;;;;5038321;28;19959;-86
2023/03/31 01:13:25;;;;;;;;;;;4.40;99.90;;;;;;5038184;28;19909;-87
2023/03/31 01:15:50;;;;;;;;;;;4.40;99.90;;;;;;5038340;28;19946;-86
2023/03/31 01:18:19;;;;;;;;;;;4.40;99.90;;;;;;5021789;28;19913;-86
2023/03/31 01:20:54;;;;;;;;;;;4.50;99.90;;;;;;5038140;28;19954;-86
2023/03/31 01:23:32;;;;;;;;;;;4.50;99.90;;;;;;5038005;28;19916;-86
2023/03/31 01:26:01;;;;;;;;;;;4.60;99.90;;;;;;5037919;28;19965;-86
2023/03/31 01:28:29;;;;;;;;;;;4.60;99.90;;;;;;5037983;28;19962;-86
2023/03/31 01:31:10;;;;;;;;;;;4.60;99.90;;;;;;5038038;28;19908;-86
2023/03/31 01:33:45;;;;;;;;;;;4.60;99.90;;;;;;5038042;28;20440;-86
2023/03/31 01:36:17;;;;;;;;;;;4.60;99.90;;;;;;5037818;28;19967;-86
2023/03/31 01:38:43;;;;;;;;;;;4.60;99.90;;;;;;5055718;28;19909;-86
2023/03/31 01:41:27;;;;;;;;;;;4.60;99.90;;;;;;5037560;28;19916;-86
2023/03/31 01:44:07;;;;;;;;;;;4.60;99.90;;;;;;5037573;28;19958;-86
2023/03/31 01:46:36;;;;;;;;;;;4.60;99.90;;;;;;5037362;28;20391;-86
2023/03/31 01:49:20;;;;;;;;;;;4.60;99.90;;;;;;5037463;28;19913;-86
2023/03/31 01:51:46;;;;;;;;;;;4.60;99.90;;;;;;5037302;28;19909;-86
2023/03/31 01:54:17;;;;;;;;;;;4.50;99.90;;;;;;5037488;28;19927;-86
2023/03/31 01:57:10;;;;;;;;;;;4.50;99.90;;;;;;5037553;28;20408;-86
2023/03/31 01:59:39;;;;;;;;;;;4.50;99.90;;;;;;5055666;28;19958;-86
2023/03/31 02:02:06;;;;;;;;;;;4.50;99.90;;;;;;5037604;28;19909;-86
2023/03/31 02:04:34;;;;;;;;;;;4.60;99.90;;;;;;5055048;28;19913;-86
2023/03/31 02:07:03;;;;;;;;;;;4.60;99.90;;;;;;5036564;28;19953;-86
2023/03/31 02:09:34;;;;;;;;;;;4.60;99.90;;;;;;5054949;28;19924;-86
2023/03/31 02:12:02;;;;;;;;;;;4.60;99.90;;;;;;5037152;28;19909;-86
2023/03/31 02:14:30;;;;;;;;;;;4.60;99.90;;;;;;5037023;28;20054;-86
2023/03/31 02:16:57;;;;;;;;;;;4.60;99.90;;;;;;5037154;28;19915;-87
2023/03/31 02:19:24;;;;;;;;;;;4.60;99.90;;;;;;5054908;28;19909;-86
2023/03/31 02:21:50;;;;;;;;;;;4.60;99.90;;;;;;5036760;28;19912;-86
2023/03/31 02:24:18;;;;;;;;;;;4.60;99.90;;;;;;5037077;28;19913;-86
2023/03/31 02:26:52;;;;;;;;;;;4.60;99.90;;;;;;5036533;28;20010;-86
2023/03/31 02:29:18;;;;;;;;;;;4.60;99.90;;;;;;5054823;28;19954;-86
2023/03/31 02:31:51;;;;;;;;;;;4.50;99.90;;;;;;5036646;28;19909;-86
2023/03/31 02:34:17;;;;;;;;;;;4.60;99.90;;;;;;5036769;28;19916;-86
2023/03/31 02:36:44;;;;;;;;;;;4.50;99.90;;;;;;5036547;28;19916;-86
2023/03/31 02:39:33;;;;;;;;;;;4.50;99.90;;;;;;5036707;28;19909;-87
2023/03/31 02:42:01;;;;;;;;;;;4.50;99.90;;;;;;5025993;28;19908;-86
2023/03/31 02:44:26;;;;;;;;;;;4.60;99.90;;;;;;5020683;28;19917;-87
2023/03/31 02:46:52;;;;;;;;;;;4.50;99.90;;;;;;5020680;28;19916;-87
2023/03/31 02:49:18;;;;;;;;;;;4.60;99.90;;;;;;5021116;28;19920;-86
2023/03/31 02:52:03;;;;;;;;;;;4.60;99.90;;;;;;5049167;28;19916;-88
2023/03/31 02:54:28;;;;;;;;;;;4.60;99.90;;;;;;5053090;28;19916;-87
2023/03/31 02:56:54;;;;;;;;;;;4.60;99.90;;;;;;5057872;28;19909;-87
2023/03/31 02:59:25;;;;;;;;;;;4.60;99.90;;;;;;5059535;28;19916;-86
2023/03/31 03:02:06;;;;;;;;;;;4.60;99.90;;;;;;5059370;28;19956;-86
2023/03/31 03:04:33;;;;;;;;;;;4.60;99.90;;;;;;5076336;28;19908;-86
2023/03/31 03:07:01;;;;;;;;;;;4.60;99.90;;;;;;5042423;28;19936;-87
2023/03/31 03:09:45;;;;;;;;;;;4.60;99.90;;;;;;5038796;28;19948;-87
2023/03/31 03:12:14;;;;;;;;;;;4.60;99.90;;;;;;5037789;28;19916;-87
2023/03/31 03:14:51;;;;;;;;;;;4.70;99.90;;;;;;5036164;28;20365;-87
2023/03/31 03:17:23;;;;;;;;;;;4.70;99.90;;;;;;5035960;28;20250;-87
2023/03/31 03:19:53;;;;;;;;;;;4.70;99.90;;;;;;5036243;28;19916;-86
2023/03/31 03:22:20;;;;;;;;;;;4.70;99.90;;;;;;5036269;28;20280;-87
2023/03/31 03:24:45;;;;;;;;;;;4.60;99.90;;;;;;5019945;28;19913;-87
2023/03/31 03:27:11;;;;;;;;;;;4.60;99.90;;;;;;5035936;28;19932;-87
2023/03/31 03:29:36;;;;;;;;;;;4.50;99.90;;;;;;5019589;28;19960;-87
2023/03/31 03:32:02;;;;;;;;;;;4.60;99.90;;;;;;5019611;28;20292;-86
2023/03/31 03:34:28;;;;;;;;;;;4.60;99.90;;;;;;5035980;28;19916;-87
2023/03/31 03:36:53;;;;;;;;;;;4.60;99.90;;;;;;5036072;28;19921;-87
2023/03/31 03:39:19;;;;;;;;;;;4.60;99.90;;;;;;5019537;28;19917;-86
2023/03/31 03:41:45;;;;;;;;;;;4.60;99.90;;;;;;5019422;28;19928;-87
2023/03/31 03:44:11;;;;;;;;;;;4.50;99.90;;;;;;5019580;28;19916;-87
2023/03/31 03:46:37;;;;;;;;;;;4.50;99.90;;;;;;5036046;28;20381;-87
2023/03/31 03:49:02;;;;;;;;;;;4.40;99.90;;;;;;5036454;28;19913;-87
2023/03/31 03:51:28;;;;;;;;;;;4.50;99.90;;;;;;5019813;28;19967;-87
2023/03/31 03:53:54;;;;;;;;;;;4.50;99.90;;;;;;5036133;28;20058;-86
2023/03/31 03:56:20;;;;;;;;;;;4.50;99.90;;;;;;5053892;28;19913;-86
2023/03/31 03:58:46;;;;;;;;;;;4.50;99.90;;;;;;5035485;28;20377;-85
2023/03/31 04:01:13;;;;;;;;;;;4.50;99.90;;;;;;5019283;28;20023;-86
2023/03/31 04:03:39;;;;;;;;;;;4.50;99.90;;;;;;5053691;28;19987;-86
2023/03/31 04:06:04;;;;;;;;;;;4.50;99.90;;;;;;5036383;28;20396;-87
2023/03/31 04:08:30;;;;;;;;;;;4.50;99.90;;;;;;5019466;28;19913;-87
2023/03/31 04:10:56;;;;;;;;;;;4.50;99.90;;;;;;5036964;28;19996;-87
2023/03/31 04:13:21;;;;;;;;;;;4.50;99.90;;;;;;5035596;28;19948;-87
2023/03/31 04:15:47;;;;;;;;;;;4.60;99.90;;;;;;5019099;28;19913;-87
2023/03/31 04:18:21;;;;;;;;;;;4.50;99.90;;;;;;5053498;28;19954;-86
2023/03/31 04:20:53;;;;;;;;;;;4.50;99.90;;;;;;5035524;28;19909;-87
2023/03/31 04:23:25;;;;;;;;;;;4.50;99.90;;;;;;5019930;28;20388;-87
2023/03/31 04:25:51;;;;;;;;;;;4.50;99.90;;;;;;5035419;28;20003;-87
2023/03/31 04:28:16;;;;;;;;;;;4.40;99.90;;;;;;5005245;28;19956;-86
2023/03/31 04:30:42;;;;;;;;;;;4.40;99.90;;;;;;5000205;28;19980;-86
2023/03/31 04:33:08;;;;;;;;;;;4.40;99.90;;;;;;5008597;28;19913;-87
2023/03/31 04:35:48;;;;;;;;;;;4.40;99.90;;;;;;4986174;28;19921;-86
2023/03/31 04:38:17;;;;;;;;;;;4.40;99.90;;;;;;4986007;28;19937;-87
2023/03/31 04:40:47;;;;;;;;;;;4.40;99.90;;;;;;4999411;28;19917;-87
2023/03/31 04:43:13;;;;;;;;;;;4.40;99.90;;;;;;5017216;28;20337;-87
2023/03/31 04:45:39;;;;;;;;;;;4.40;99.90;;;;;;4998659;28;19956;-87
2023/03/31 04:48:04;;;;;;;;;;;4.40;99.90;;;;;;4999194;28;20263;-87
2023/03/31 04:50:31;;;;;;;;;;;4.50;99.90;;;;;;4999192;28;20003;-87
2023/03/31 04:52:57;;;;;;;;;;;4.50;99.90;;;;;;4982922;28;19921;-87
2023/03/31 04:55:22;;;;;;;;;;;4.50;99.90;;;;;;4999202;28;20277;-87
2023/03/31 04:57:48;;;;;;;;;;;4.50;99.90;;;;;;4999359;28;19959;-87
2023/03/31 05:00:14;;;;;;;;;;;4.50;99.90;;;;;;4999108;28;19910;-88
2023/03/31 05:02:40;;;;;;;;;;;4.50;99.90;;;;;;4998897;28;19917;-89
2023/03/31 05:05:05;;;;;;;;;;;4.50;99.90;;;;;;4999061;28;20263;-88
2023/03/31 05:07:31;;;;;;;;;;;4.50;99.90;;;;;;4983345;28;19913;-88
2023/03/31 05:09:56;;;;;;;;;;;4.50;99.90;;;;;;4982722;28;19913;-87
2023/03/31 05:12:22;;;;;;;;;;;4.50;99.90;;;;;;4998758;28;19989;-87
2023/03/31 05:14:48;;;;;;;;;;;4.60;99.90;;;;;;4998876;28;19953;-85
2023/03/31 05:17:13;;;;;;;;;;;4.60;99.90;;;;;;5001617;28;19913;-84
2023/03/31 05:19:39;;;;;;;;;;;4.60;99.90;;;;;;4983680;28;20012;-84
2023/03/31 05:22:04;;;;;;;;;;;4.50;99.90;;;;;;4982376;28;19918;-82
2023/03/31 05:24:30;;;;;;;;;;;4.50;99.90;;;;;;4999064;28;20370;-83
2023/03/31 05:26:56;;;;;;;;;;;4.50;99.90;;;;;;4998618;28;20452;-83
2023/03/31 05:29:22;;;;;;;;;;;4.50;99.90;;;;;;4982357;28;20400;-83
2023/03/31 05:31:48;;;;;;;;;;;4.50;99.90;;;;;;4998529;28;19910;-82
2023/03/31 05:34:14;;;;;;;;;;;4.40;99.90;;;;;;4998852;28;20267;-83
2023/03/31 05:36:39;;;;;;;;;;;4.40;99.90;;;;;;4999357;28;20383;-83
2023/03/31 05:39:06;;;;;;;;;;;4.40;99.90;;;;;;4999768;28;19917;-83
2023/03/31 05:41:31;;;;;;;;;;;4.40;99.90;;;;;;4982376;28;19913;-83
2023/03/31 05:43:57;;;;;;;;;;;4.40;99.90;;;;;;4999376;28;19914;-83
2023/03/31 05:46:22;;;;;;;;;;;4.40;99.90;;;;;;4983473;28;20346;-83
2023/03/31 05:48:48;;;;;;;;;;;4.50;99.90;;;;;;5016877;28;19917;-83
2023/03/31 05:51:14;;;;;;;;;;;4.50;99.90;;;;;;4999440;28;19909;-83
2023/03/31 05:53:40;;;;;;;;;;;4.60;99.90;;;;;;4983692;28;19921;-83
2023/03/31 05:56:06;;;;;;;;;;;4.60;99.90;;;;;;4999305;28;20422;-83
2023/03/31 05:58:33;;;;;;;;;;;4.70;99.90;;;;;;4983189;28;19953;-84
2023/03/31 06:01:04;;;;;;;;;;;4.70;99.90;;;;;;4982359;28;20436;-83
2023/03/31 06:03:31;;;;;;;;;;;4.70;99.90;;;;;;4998685;28;19917;-82
2023/03/31 06:05:57;;;;;;;;;;;4.80;99.90;;;;;;5015923;28;19924;-83
2023/03/31 06:08:23;;;;;;;;;;;4.90;99.90;;;;;;4983650;28;20456;-83
2023/03/31 06:10:49;;;;;;;;;;;4.90;99.90;;;;;;4982222;28;19952;-82
2023/03/31 06:13:15;;;;;;;;;;;5.00;99.90;;;;;;4999305;28;19914;-82
2023/03/31 06:15:41;;;;;;;;;;;5.10;99.90;;;;;;5016749;28;20320;-83
2023/03/31 06:18:09;;;;;;;;;;;5.20;99.90;;;;;;5017173;28;19920;-83
2023/03/31 06:20:37;;;;;;;;;;;5.20;99.90;;;;;;4999661;28;20353;-83
2023/03/31 06:23:03;;;;;;;;;;;5.20;99.90;;;;;;4999867;28;20358;-83
2023/03/31 06:25:29;;;;;;;;;;;5.20;99.90;;;;;;4999699;28;19919;-83
2023/03/31 06:27:54;;;;;;;;;;;5.20;99.90;;;;;;5016578;28;19914;-83
2023/03/31 06:30:21;;;;;;;;;;;5.20;99.90;;;;;;4999161;28;19914;-83
2023/03/31 06:32:46;;;;;;;;;;;5.20;99.90;;;;;;4998910;28;19914;-83
2023/03/31 06:35:12;;;;;;;;;;;5.20;99.90;;;;;;5001448;28;19918;-83
2023/03/31 06:37:37;;;;;;;;;;;5.20;99.90;;;;;;5000122;28;19989;-83
2023/03/31 06:40:03;;;;;;;;;;;5.10;99.90;;;;;;4985270;28;19914;-83
2023/03/31 06:42:29;;;;;;;;;;;5.20;99.90;;;;;;5017530;28;20001;-83
2023/03/31 06:44:55;;;;;;;;;;;5.20;99.90;;;;;;4982869;28;20448;-83
2023/03/31 06:47:20;;;;;;;;;;;5.20;99.90;;;;;;4998974;28;19957;-83
2023/03/31 06:49:46;;;;;;;;;;;5.20;99.90;;;;;;4999339;28;19917;-83
2023/03/31 06:52:11;;;;;;;;;;;5.30;99.90;;;;;;4999463;28;20374;-83
2023/03/31 06:54:37;;;;;;;;;;;5.30;99.90;;;;;;4999297;28;20346;-83
2023/03/31 06:57:03;;;;;;;;;;;5.30;99.90;;;;;;5017028;28;19981;-83
2023/03/31 06:59:28;;;;;;;;;;;5.30;99.90;;;;;;4983425;28;19913;-83
2023/03/31 07:01:54;;;;;;;;;;;5.40;99.90;;;;;;4983258;28;19924;-83
2023/03/31 07:04:19;;;;;;;;;;;5.60;99.90;;;;;;4983263;28;19914;-83
2023/03/31 07:06:45;;;;;;;;;;;5.80;99.90;;;;;;4999059;28;19972;-83
2023/03/31 07:09:10;;;;;;;;;;;5.90;99.90;;;;;;4998735;28;20012;-83
2023/03/31 07:11:36;;;;;;;;;;;5.90;99.90;;;;;;4998997;28;19913;-82
2023/03/31 07:14:02;;;;;;;;;;;5.90;99.90;;;;;;5016599;28;20366;-83
2023/03/31 07:16:27;;;;;;;;;;;6.00;99.90;;;;;;4982734;28;20400;-83
2023/03/31 07:18:58;;;;;;;;;;;6.10;99.90;;;;;;4999974;28;19936;-83
2023/03/31 07:21:24;;;;;;;;;;;6.10;99.90;;;;;;4983547;28;19944;-83
2023/03/31 07:23:50;;;;;;;;;;;6.20;99.90;;;;;;4998997;28;19913;-83
2023/03/31 07:26:15;;;;;;;;;;;6.20;99.90;;;;;;4983620;28;19917;-82
2023/03/31 07:28:41;;;;;;;;;;;6.20;99.90;;;;;;5016787;28;20001;-82
2023/03/31 07:31:10;;;;;;;;;;;6.20;99.90;;;;;;5017327;28;19909;-82
2023/03/31 07:33:36;;;;;;;;;;;6.20;99.90;;;;;;5000073;28;20377;-83
2023/03/31 07:36:05;;;;;;;;;;;6.20;99.90;;;;;;5000396;28;19925;-83
2023/03/31 07:38:30;;;;;;;;;;;6.20;99.90;;;;;;4999925;28;19914;-83
2023/03/31 07:40:56;;;;;;;;;;;6.10;99.90;;;;;;5018219;28;19920;-82
2023/03/31 07:43:21;;;;;;;;;;;6.10;99.90;;;;;;5000123;28;19918;-83
2023/03/31 07:45:47;;;;;;;;;;;6.00;99.90;;;;;;4999254;28;19964;-83
2023/03/31 07:48:13;;;;;;;;;;;6.00;99.90;;;;;;4999599;28;20017;-82
2023/03/31 07:50:38;;;;;;;;;;;6.00;99.90;;;;;;4999242;28;20366;-83
2023/03/31 07:53:04;;;;;;;;;;;6.10;99.90;;;;;;4983036;28;20329;-83
2023/03/31 07:55:30;;;;;;;;;;;6.10;99.90;;;;;;5017337;28;20362;-83
2023/03/31 07:57:55;;;;;;;;;;;6.20;99.90;;;;;;4999592;28;19916;-83
2023/03/31 08:00:21;;;;;;;;;;;6.20;99.90;;;;;;4999965;28;19916;-83
2023/03/31 08:02:47;;;;;;;;;;;6.30;99.90;;;;;;5016820;28;19963;-83
2023/03/31 08:05:15;;;;;;;;;;;6.40;99.90;;;;;;5001885;28;19910;-83
2023/03/31 08:07:41;;;;;;;;;;;6.50;99.90;;;;;;5020299;28;19941;-83
2023/03/31 08:10:08;;;;;;;;;;;6.60;99.90;;;;;;5002305;28;19914;-83
2023/03/31 08:12:34;;;;;;;;;;;6.80;99.90;;;;;;5019959;28;19910;-83
2023/03/31 08:15:00;;;;;;;;;;;6.80;99.90;;;;;;5002016;28;19920;-83
2023/03/31 08:17:25;;;;;;;;;;;6.90;99.90;;;;;;4985612;28;19914;-83
2023/03/31 08:19:51;;;;;;;;;;;6.90;99.90;;;;;;4985525;28;19913;-83
2023/03/31 08:22:17;;;;;;;;;;;6.80;99.90;;;;;;5020117;28;20005;-83
2023/03/31 08:24:42;;;;;;;;;;;6.80;99.90;;;;;;5019490;28;19953;-83
2023/03/31 08:27:08;;;;;;;;;;;6.80;99.90;;;;;;5002344;28;19917;-83
2023/03/31 08:29:34;;;;;;;;;;;6.80;99.90;;;;;;5002072;28;19916;-83
2023/03/31 08:31:59;;;;;;;;;;;6.70;99.90;;;;;;4985647;28;20365;-83
2023/03/31 08:34:26;;;;;;;;;;;6.70;99.90;;;;;;5020343;28;20282;-83
2023/03/31 08:36:51;;;;;;;;;;;6.70;99.90;;;;;;5003646;28;19993;-83
2023/03/31 08:39:17;;;;;;;;;;;6.70;99.90;;;;;;5020967;28;19913;-83
2023/03/31 08:41:58;;;;;;;;;;;6.70;99.90;;;;;;4986398;28;19914;-82
2023/03/31 08:44:40;;;;;;;;;;;6.70;99.90;;;;;;5020098;28;19909;-82
2023/03/31 08:47:06;;;;;;;;;;;6.70;99.90;;;;;;5002704;28;19919;-83
2023/03/31 08:49:41;;;;;;;;;;;6.80;99.90;;;;;;5002694;28;19914;-82
2023/03/31 08:52:09;;;;;;;;;;;6.90;99.90;;;;;;5002948;28;19909;-82
2023/03/31 08:54:40;;;;;;;;;;;7.10;99.90;;;;;;5002334;28;20017;-82
2023/03/31 08:57:11;;;;;;;;;;;7.20;99.90;;;;;;5002852;28;19917;-83
2023/03/31 08:59:37;;;;;;;;;;;7.30;99.90;;;;;;5019834;28;19910;-82
2023/03/31 09:02:03;;;;;;;;;;;7.40;99.90;;;;;;5003024;28;19936;-82
2023/03/31 09:04:42;;;;;;;;;;;7.40;99.90;;;;;;5021467;28;20358;-82
2023/03/31 09:07:07;;;;;;;;;;;7.50;99.90;;;;;;5002789;28;19984;-82
2023/03/31 09:09:42;;;;;;;;;;;7.50;99.90;;;;;;5002570;28;19940;-83
2023/03/31 09:12:15;;;;;;;;;;;7.60;99.90;;;;;;5002225;28;19910;-82
2023/03/31 09:15:01;;;;;;;;;;;7.70;99.90;;;;;;5019804;28;19910;-82
2023/03/31 09:17:31;;;;;;;;;;;7.80;99.90;;;;;;5019380;28;19913;-83
2023/03/31 09:20:07;;;;;;;;;;;7.80;99.90;;;;;;5009225;28;19963;-83
2023/03/31 09:22:35;;;;;;;;;;;7.90;99.90;;;;;;5012051;28;19913;-83
2023/03/31 09:25:07;;;;;;;;;;;8.00;99.90;;;;;;5004037;28;19917;-83
2023/03/31 09:27:36;;;;;;;;;;;8.00;99.90;;;;;;5004415;28;19923;-83
2023/03/31 09:30:08;;;;;;;;;;;8.20;99.90;;;;;;5010440;28;19913;-83
2023/03/31 09:32:36;;;;;;;;;;;8.30;99.90;;;;;;5008226;28;19948;-84
2023/03/31 09:35:13;;;;;;;;;;;8.40;99.90;;;;;;5000988;28;19979;-83
2023/03/31 09:37:38;;;;;;;;;;;8.50;99.90;;;;;;5016259;28;19909;-83
2023/03/31 09:40:06;;;;;;;;;;;8.50;99.90;;;;;;4998771;28;20386;-83
2023/03/31 09:42:35;;;;;;;;;;;8.60;99.90;;;;;;4998365;28;19957;-83
2023/03/31 09:45:01;;;;;;;;;;;8.70;99.90;;;;;;4998702;28;19909;-83
2023/03/31 09:47:41;;;;;;;;;;;8.70;99.90;;;;;;4998585;28;19917;-83
2023/03/31 09:50:08;;;;;;;;;;;8.70;99.90;;;;;;5047375;28;19909;-83
2023/03/31 09:52:41;;;;;;;;;;;8.70;99.90;;;;;;5057509;28;19909;-83
2023/03/31 09:55:21;;;;;;;;;;;8.70;99.90;;;;;;5041101;28;19958;-83
2023/03/31 09:57:47;;;;;;;;;;;8.70;99.90;;;;;;5039396;28;20003;-82
2023/03/31 10:00:17;;;;;;;;;;;8.70;99.90;;;;;;5055993;28;20415;-83
2023/03/31 10:02:47;;;;;;;;;;;8.70;99.90;;;;;;5038162;28;19958;-82
2023/03/31 10:05:28;;;;;;;;;;;8.70;99.90;;;;;;5056034;28;19913;-82
2023/03/31 10:08:12;;;;;;;;;;;8.70;99.90;;;;;;5038048;28;19909;-82
2023/03/31 10:10:43;;;;;;;;;;;8.60;99.90;;;;;;5039697;28;19916;-83
2023/03/31 10:13:09;;;;;;;;;;;8.60;99.90;;;;;;5038480;28;20357;-82
2023/03/31 10:15:38;;;;;;;;;;;8.60;99.90;;;;;;5038723;28;19995;-82
2023/03/31 10:18:04;;;;;;;;;;;8.60;99.90;;;;;;5058184;28;19936;-82
2023/03/31 10:20:32;;;;;;;;;;;8.50;99.90;;;;;;5022767;28;20372;-82
2023/03/31 10:23:02;;;;;;;;;;;8.50;99.90;;;;;;5038741;28;19909;-82
2023/03/31 10:25:27;;;;;;;;;;;8.50;99.90;;;;;;5057212;28;19917;-82
2023/03/31 10:27:54;;;;;;;;;;;8.50;99.90;;;;;;5038470;28;19916;-82
2023/03/31 10:30:22;;;;;;;;;;;8.60;99.90;;;;;;5038501;28;19959;-82
2023/03/31 10:32:47;;;;;;;;;;;8.60;99.90;;;;;;5038578;28;19915;-82
2023/03/31 10:35:21;;;;;;;;;;;8.60;99.90;;;;;;5021312;28;20011;-82
2023/03/31 10:37:47;;;;;;;;;;;8.80;99.90;;;;;;5036399;28;19909;-82
2023/03/31 10:40:20;;;;;;;;;;;8.90;99.90;;;;;;5056736;28;19916;-82
2023/03/31 10:42:47;;;;;;;;;;;9.00;99.90;;;;;;5038547;28;19956;-82
2023/03/31 10:45:24;;;;;;;;;;;9.10;99.90;;;;;;5055828;28;19909;-82
2023/03/31 10:47:52;;;;;;;;;;;9.20;99.90;;;;;;5055884;28;19920;-82
2023/03/31 10:50:17;;;;;;;;;;;9.50;99.90;;;;;;5038480;28;20373;-82
2023/03/31 10:52:44;;;;;;;;;;;9.70;99.90;;;;;;5056539;28;19916;-82
2023/03/31 10:55:11;;;;;;;;;;;10.00;99.90;;;;;;5056654;28;19913;-82
2023/03/31 10:57:49;;;;;;;;;;;10.20;99.90;;;;;;5060046;28;19968;-82
2023/03/31 11:00:23;;;;;;;;;;;10.30;99.90;;;;;;5039542;28;20369;-82
2023/03/31 11:03:02;;;;;;;;;;;10.40;99.90;;;;;;5056189;28;19909;-82
2023/03/31 11:05:33;;;;;;;;;;;10.70;99.90;;;;;;5039052;28;19928;-82
2023/03/31 11:08:11;;;;;;;;;;;11.00;99.90;;;;;;5038489;28;19916;-82
2023/03/31 11:10:57;;;;;;;;;;;11.00;99.90;;;;;;5056677;28;19909;-82
2023/03/31 11:13:23;;;;;;;;;;;11.20;99.90;;;;;;5056594;28;19934;-82
2023/03/31 11:16:00;;;;;;;;;;;11.30;99.90;;;;;;5056346;28;20361;-82
2023/03/31 11:18:28;;;;;;;;;;;11.30;99.90;;;;;;5038537;28;19916;-82
2023/03/31 11:20:54;;;;;;;;;;;11.30;99.90;;;;;;5038631;28;19916;-82
2023/03/31 11:23:32;;;;;;;;;;;11.30;99.90;;;;;;5037399;28;19908;-82
2023/03/31 11:26:04;;;;;;;;;;;11.20;99.90;;;;;;5036245;28;19913;-82
2023/03/31 11:28:40;;;;;;;;;;;11.10;99.90;;;;;;5054340;28;19909;-82
2023/03/31 11:31:27;;;;;;;;;;;11.00;99.90;;;;;;5036430;28;19909;-82
2023/03/31 11:33:52;;;;;;;;;;;10.90;99.90;;;;;;5054588;28;19919;-82
2023/03/31 11:36:21;;;;;;;;;;;10.90;99.90;;;;;;5054192;28;19920;-82
2023/03/31 11:38:54;;;;;;;;;;;10.80;99.90;;;;;;5038734;28;19908;-82
2023/03/31 11:41:33;;;;;;;;;;;10.70;99.90;;;;;;5040797;28;20009;-82
2023/03/31 11:44:02;;;;;;;;;;;10.70;99.90;;;;;;5041857;28;20277;-82
2023/03/31 11:46:37;;;;;;;;;;;10.60;99.90;;;;;;5041271;28;19913;-82
2023/03/31 11:49:03;;;;;;;;;;;10.50;99.90;;;;;;5065198;28;19943;-82
2023/03/31 11:51:31;;;;;;;;;;;10.50;99.90;;;;;;5055555;28;19909;-82
2023/03/31 11:53:58;;;;;;;;;;;10.50;99.90;;;;;;5054388;28;19916;-83
2023/03/31 11:56:29;;;;;;;;;;;10.40;99.90;;;;;;5054627;28;19980;-83
2023/03/31 11:58:57;;;;;;;;;;;10.40;99.90;;;;;;5054654;28;19943;-83
2023/03/31 12:01:31;;;;;;;;;;;10.40;99.90;;;;;;5053749;28;19920;-83
2023/03/31 12:04:11;;;;;;;;;;;10.50;99.90;;;;;;5049717;28;19909;-84
2023/03/31 12:06:40;;;;;;;;;;;10.50;99.90;;;;;;5046742;28;20323;-84
2023/03/31 12:09:12;;;;;;;;;;;10.50;99.90;;;;;;5065311;28;19916;-84
2023/03/31 12:12:03;;;;;;;;;;;10.50;99.90;;;;;;5066453;28;19959;-83
2023/03/31 12:14:40;;;;;;;;;;;10.40;99.90;;;;;;5045810;28;19930;-83
2023/03/31 12:17:11;;;;;;;;;;;10.40;99.90;;;;;;5046848;28;20408;-84
2023/03/31 12:19:44;;;;;;;;;;;10.40;99.90;;;;;;5045655;28;19912;-85
2023/03/31 12:22:25;;;;;;;;;;;10.40;99.90;;;;;;5046238;28;19909;-86
2023/03/31 12:24:52;;;;;;;;;;;10.40;99.90;;;;;;5045161;28;19909;-86
2023/03/31 12:27:20;;;;;;;;;;;10.40;99.90;;;;;;5046767;28;20389;-84
2023/03/31 12:30:05;;;;;;;;;;;10.40;99.90;;;;;;5049691;28;19908;-84
2023/03/31 12:32:33;;;;;;;;;;;10.40;99.90;;;;;;5051018;28;19948;-83
2023/03/31 12:35:17;;;;;;;;;;;10.30;99.90;;;;;;5051422;28;19916;-83
2023/03/31 12:38:04;;;;;;;;;;;10.30;99.90;;;;;;5051862;28;21421;-83
2023/03/31 12:40:30;;;;;;;;;;;10.30;99.90;;;;;;5069333;28;19999;-82
2023/03/31 12:43:14;;;;;;;;;;;10.30;99.90;;;;;;5051132;28;19909;-82
2023/03/31 12:45:49;;;;;;;;;;;10.30;99.90;;;;;;5049398;28;19965;-82
2023/03/31 12:48:26;;;;;;;;;;;10.30;99.90;;;;;;5027813;28;19909;-82
2023/03/31 12:50:54;;;;;;;;;;;10.20;99.90;;;;;;5009472;28;20066;-82
2023/03/31 12:53:26;;;;;;;;;;;10.10;99.90;;;;;;5010216;28;19910;-82
2023/03/31 12:55:59;;;;;;;;;;;10.10;99.90;;;;;;5010237;28;19913;-82
2023/03/31 12:58:32;;;;;;;;;;;10.00;99.90;;;;;;5009473;28;19960;-82
2023/03/31 13:01:13;;;;;;;;;;;10.00;99.90;;;;;;5008634;28;19909;-84
2023/03/31 13:04:10;;;;;;;;;;;10.00;99.90;;;;;;5007046;28;19936;-84
2023/03/31 13:06:35;;;;;;;;;;;10.00;99.90;;;;;;5023718;28;19920;-84
2023/03/31 13:09:13;;;;;;;;;;;9.80;99.90;;;;;;5005928;28;20366;-84
2023/03/31 13:11:41;;;;;;;;;;;9.70;99.90;;;;;;5004717;28;19910;-84
2023/03/31 13:14:10;;;;;;;;;;;9.60;99.90;;;;;;5004816;28;20001;-84
2023/03/31 13:16:36;;;;;;;;;;;9.40;99.90;;;;;;5022539;28;19920;-84
2023/03/31 13:19:02;;;;;;;;;;;9.20;99.90;;;;;;5023895;28;19909;-83
2023/03/31 13:21:28;;;;;;;;;;;9.10;99.90;;;;;;5022865;28;20370;-84
2023/03/31 13:23:57;;;;;;;;;;;9.10;99.90;;;;;;5023490;28;19916;-84
2023/03/31 13:26:32;;;;;;;;;;;9.10;99.90;;;;;;5042896;28;19920;-83
2023/03/31 13:29:13;;;;;;;;;;;9.10;99.90;;;;;;5025076;28;19909;-84
2023/03/31 13:31:57;;;;;;;;;;;9.10;99.90;;;;;;5023899;28;19909;-83
2023/03/31 13:34:23;;;;;;;;;;;9.10;99.90;;;;;;5024007;28;19980;-84
2023/03/31 13:36:58;;;;;;;;;;;9.10;99.90;;;;;;5008221;28;19949;-83
2023/03/31 13:39:35;;;;;;;;;;;9.00;99.90;;;;;;5023142;28;19916;-83
2023/03/31 13:42:19;;;;;;;;;;;8.90;99.90;;;;;;5022278;28;19959;-84
2023/03/31 13:44:54;;;;;;;;;;;8.90;99.90;;;;;;5021471;28;19909;-84
2023/03/31 13:47:23;;;;;;;;;;;8.80;99.90;;;;;;5021426;28;19913;-83
2023/03/31 13:50:04;;;;;;;;;;;8.80;99.90;;;;;;5023087;28;19909;-84
2023/03/31 13:52:30;;;;;;;;;;;8.80;99.90;;;;;;5039982;28;19910;-84
2023/03/31 13:55:19;;;;;;;;;;;8.80;99.90;;;;;;5039563;28;19984;-83
2023/03/31 13:58:04;;;;;;;;;;;8.80;99.90;;;;;;5021047;28;20376;-84
2023/03/31 14:00:46;;;;;;;;;;;8.80;99.90;;;;;;5021088;28;19909;-83
2023/03/31 14:03:28;;;;;;;;;;;8.80;99.90;;;;;;5020694;28;19956;-84
2023/03/31 14:05:59;;;;;;;;;;;8.70;99.90;;;;;;5020875;28;20361;-84
2023/03/31 14:08:48;;;;;;;;;;;8.70;99.90;;;;;;5021282;28;20387;-84
2023/03/31 14:11:25;;;;;;;;;;;8.60;99.90;;;;;;5018249;28;19959;-84
2023/03/31 14:14:10;;;;;;;;;;;8.60;99.90;;;;;;5021359;28;19913;-84
2023/03/31 14:16:51;;;;;;;;;;;8.60;99.90;;;;;;5021154;28;19974;-83
2023/03/31 14:19:32;;;;;;;;;;;8.60;99.90;;;;;;5021029;28;19910;-83
2023/03/31 14:22:03;;;;;;;;;;;8.50;99.90;;;;;;5021155;28;19956;-83
2023/03/31 14:24:36;;;;;;;;;;;8.50;99.90;;;;;;5111909;27;20376;-76
2023/03/31 14:27:13;;;;;;;;;;;8.40;99.90;;;;;;5112328;28;20002;-75
2023/03/31 14:29:39;;;;;;;;;;;8.40;99.90;;;;;;5111988;28;19912;-76
2023/03/31 14:32:04;;;;;;;;;;;8.40;99.90;;;;;;5111514;28;19914;-75
2023/03/31 14:34:41;;;;;;;;;;;8.40;99.90;;;;;;5111578;28;19908;-76
2023/03/31 14:37:16;;;;;;;;;;;8.30;99.90;;;;;;5111846;28;20395;-75
2023/03/31 14:39:53;;;;;;;;;;;8.30;99.90;;;;;;5111488;28;19934;-75
2023/03/31 14:42:39;;;;;;;;;;;8.20;99.90;;;;;;5111645;28;20267;-76
2023/03/31 14:45:08;;;;;;;;;;;8.10;99.90;;;;;;5112078;28;19931;-76